Las Vegas, Nevada
Traffic Map
Current Weather Conditions
Las Vegas, Nevada
Clear
Clear
53°
Feels Like: 53°
Wind Chill: 53° Ceiling: Unl
Heat Index: 53° Visibility: 10mi
Dew Point: 22° Wind: 7mph
Humidity: 30% Direction: 230° (SW)
Pressure: 29.86in Gusts: 0mph
Raw Report DataKLAS 290556Z 23006KT 10SM CLR 12/M06 A2986 RMK AO2 SLP106 T01171056 10183 20111 58001
Traffic Incident Summary
Active as of:
Severity:
Category:
InformationThere was an issue retrieving the traffic information for this location. Please try a different location or try again shortly.
Advertisements
Track Severe Weather on mobile